Terminal Aerodrome Forecast
Issued by NWS

Home | Current Version | Previous Version | Graphics & Text | Print | Product List | Glossary On
Versions: 1 2 3 4 5 6 7 8 9 10 11 12 13 14
000
FTUS43 KBIS 211347 AAA
TAFDIK
TAF AMD
KDIK 211347Z 2114/2212 19017G26KT P6SM OVC012
     FM211600 18017G26KT P6SM SCT020 SCT150
     FM220200 17015KT P6SM FEW070 SCT250=

USA.gov is the U.S. government's official web portal to all federal, state and local government web resources and services.